Time;durP1;ratioP1;P1;durP2;ratioP2;P2;SDS_P1;SDS_P2;PMS_P1;PMS_P2;Temp;Humidity;BMP_temperature;BMP_pressure;BME280_temperature;BME280_humidity;BME280_pressure;Samples;Min_cycle;Max_cycle;Signal;HPM_P1;HPM_P2
2024/01/29 00:01:55;;;;;;;7.05;2.63;;;6.00;75.00;;;;;;9178663;19;20093;-73
2024/01/29 00:05:06;;;;;;;7.78;2.75;;;6.00;74.70;;;;;;9177175;19;20487;-74
2024/01/29 00:08:11;;;;;;;6.05;2.78;;;6.00;74.80;;;;;;9176202;19;20026;-73
2024/01/29 00:11:18;;;;;;;11.25;3.45;;;6.00;74.80;;;;;;9178255;19;20032;-74
2024/01/29 00:14:24;;;;;;;6.50;2.53;;;6.00;74.70;;;;;;9177592;19;20019;-74
2024/01/29 00:17:32;;;;;;;4.13;2.33;;;6.00;74.70;;;;;;9178435;19;20015;-73
2024/01/29 00:20:40;;;;;;;5.32;2.65;;;6.00;74.80;;;;;;9176814;19;20045;-74
2024/01/29 00:23:47;;;;;;;5.05;2.60;;;6.00;74.70;;;;;;9178541;19;20017;-74
2024/01/29 00:26:53;;;;;;;6.57;2.72;;;6.00;74.80;;;;;;9176506;19;20041;-74
2024/01/29 00:30:01;;;;;;;10.80;2.90;;;6.00;74.80;;;;;;9175637;19;20503;-73
2024/01/29 00:33:06;;;;;;;3.65;2.45;;;6.00;74.70;;;;;;9172692;19;20635;-74
2024/01/29 00:36:17;;;;;;;7.05;2.58;;;6.00;74.80;;;;;;9178250;19;20047;-74
2024/01/29 00:39:23;;;;;;;5.22;2.40;;;6.00;74.70;;;;;;9175632;19;20059;-72
2024/01/29 00:42:30;;;;;;;5.15;2.40;;;5.90;74.60;;;;;;9177659;19;20015;-73
2024/01/29 00:45:36;;;;;;;10.20;2.90;;;6.00;74.80;;;;;;9177821;19;20025;-74
2024/01/29 00:48:44;;;;;;;3.78;2.15;;;6.00;75.00;;;;;;9175951;19;20014;-74
2024/01/29 00:51:53;;;;;;;7.70;2.17;;;6.00;74.90;;;;;;9173996;19;20021;-74
2024/01/29 00:55:00;;;;;;;4.65;2.75;;;6.00;74.70;;;;;;9177904;19;20025;-74
2024/01/29 00:58:06;;;;;;;7.75;2.30;;;6.00;74.60;;;;;;9174933;19;20025;-73
2024/01/29 01:01:14;;;;;;;8.02;2.65;;;6.00;74.70;;;;;;9174032;19;20022;-74
2024/01/29 01:04:20;;;;;;;6.47;2.70;;;5.90;74.60;;;;;;9175626;19;20014;-74
2024/01/29 01:07:31;;;;;;;6.50;2.53;;;5.90;75.00;;;;;;9175883;19;20020;-73
2024/01/29 01:10:47;;;;;;;5.47;3.03;;;5.90;74.70;;;;;;9176139;19;20015;-75
2024/01/29 01:13:55;;;;;;;11.10;2.72;;;5.90;75.20;;;;;;9173607;19;20021;-74
2024/01/29 01:17:01;;;;;;;7.75;3.03;;;5.90;74.70;;;;;;9178076;19;20047;-73
2024/01/29 01:20:10;;;;;;;4.82;2.28;;;5.90;74.60;;;;;;9174352;19;20484;-73
2024/01/29 01:23:18;;;;;;;6.10;2.75;;;5.90;74.50;;;;;;9176188;19;20365;-74
2024/01/29 01:26:26;;;;;;;5.53;2.97;;;5.80;74.50;;;;;;9174551;19;20090;-73
2024/01/29 01:29:32;;;;;;;9.77;2.95;;;5.80;74.70;;;;;;9175785;19;20040;-74
2024/01/29 01:32:40;;;;;;;6.35;2.40;;;5.90;74.80;;;;;;9167802;19;20024;-73
2024/01/29 01:35:46;;;;;;;4.97;2.53;;;5.80;74.80;;;;;;9173256;19;20052;-75
2024/01/29 01:38:56;;;;;;;8.98;3.40;;;5.80;74.60;;;;;;9177017;19;20014;-74
2024/01/29 01:42:04;;;;;;;8.90;2.92;;;5.80;74.60;;;;;;9173511;19;20011;-73
2024/01/29 01:45:14;;;;;;;5.85;2.88;;;5.80;74.60;;;;;;9171836;19;20825;-73
2024/01/29 01:48:23;;;;;;;5.65;2.50;;;5.80;74.60;;;;;;9175948;19;20121;-75
2024/01/29 01:51:31;;;;;;;6.93;2.85;;;5.80;74.80;;;;;;9173852;19;20472;-75
2024/01/29 01:54:40;;;;;;;4.63;2.30;;;5.80;74.60;;;;;;9172829;19;20043;-74
2024/01/29 01:57:48;;;;;;;8.52;2.90;;;5.90;74.70;;;;;;9174992;19;20024;-74
2024/01/29 02:00:53;;;;;;;7.80;2.85;;;5.80;74.70;;;;;;9175101;19;20050;-74
2024/01/29 02:04:02;;;;;;;4.57;2.75;;;5.80;74.60;;;;;;9176198;19;20010;-73
2024/01/29 02:07:11;;;;;;;5.68;2.78;;;5.70;74.60;;;;;;9173354;19;20018;-72
2024/01/29 02:10:22;;;;;;;8.82;2.70;;;5.80;74.80;;;;;;9175083;19;20106;-72
2024/01/29 02:13:30;;;;;;;8.75;3.05;;;5.80;74.90;;;;;;9171334;19;20017;-73
2024/01/29 02:16:38;;;;;;;5.47;2.45;;;5.80;74.70;;;;;;9173892;19;20003;-72
2024/01/29 02:19:44;;;;;;;8.60;2.85;;;5.80;74.80;;;;;;9173071;19;20386;-73
2024/01/29 02:22:54;;;;;;;6.43;3.20;;;5.70;74.80;;;;;;9176731;19;20018;-73
2024/01/29 02:26:00;;;;;;;8.88;2.80;;;5.80;75.00;;;;;;9174528;19;20370;-73
2024/01/29 02:29:08;;;;;;;8.35;3.08;;;5.80;75.10;;;;;;9173120;19;20010;-74
2024/01/29 02:32:13;;;;;;;9.82;3.15;;;5.80;74.80;;;;;;9166982;19;20018;-73
2024/01/29 02:35:22;;;;;;;6.20;2.90;;;5.80;75.50;;;;;;9172426;19;20344;-74
2024/01/29 02:38:30;;;;;;;9.02;2.67;;;5.70;74.80;;;;;;9175482;19;20014;-72
2024/01/29 02:41:37;;;;;;;7.20;2.97;;;5.80;74.70;;;;;;9182734;19;20006;-74
2024/01/29 02:44:43;;;;;;;7.07;2.70;;;5.70;74.80;;;;;;9185051;19;20021;-75
2024/01/29 02:47:51;;;;;;;7.70;3.15;;;5.70;74.70;;;;;;9181750;19;20029;-72
2024/01/29 02:50:58;;;;;;;9.30;2.72;;;5.90;74.90;;;;;;9178967;19;20010;-73
2024/01/29 02:54:08;;;;;;;5.82;3.35;;;5.70;74.90;;;;;;9178297;19;20403;-73
2024/01/29 02:57:13;;;;;;;7.68;3.08;;;5.70;74.90;;;;;;9183541;19;20014;-73
2024/01/29 03:00:22;;;;;;;9.18;3.30;;;5.70;74.80;;;;;;9180754;19;20019;-72
2024/01/29 03:03:27;;;;;;;10.45;3.72;;;5.70;74.70;;;;;;9182926;19;20361;-73
2024/01/29 03:06:36;;;;;;;6.32;2.78;;;5.60;74.70;;;;;;9180574;19;20011;-74
2024/01/29 03:09:44;;;;;;;9.02;3.05;;;5.60;74.60;;;;;;9180736;19;20942;-73
2024/01/29 03:12:52;;;;;;;6.95;3.05;;;5.60;74.80;;;;;;9178735;19;20369;-73
2024/01/29 03:15:58;;;;;;;9.30;3.60;;;5.60;74.80;;;;;;9179704;19;20023;-72
2024/01/29 03:19:07;;;;;;;8.82;2.90;;;5.60;74.70;;;;;;9182073;19;20023;-73
2024/01/29 03:22:13;;;;;;;6.95;3.42;;;5.50;74.70;;;;;;9178413;19;20019;-73
2024/01/29 03:25:23;;;;;;;6.13;2.95;;;5.50;74.70;;;;;;9182509;19;20380;-73
2024/01/29 03:28:28;;;;;;;6.82;3.10;;;5.50;74.80;;;;;;9179165;19;20118;-73
2024/01/29 03:31:36;;;;;;;6.32;2.95;;;5.40;74.80;;;;;;9175845;19;20006;-73
2024/01/29 03:34:44;;;;;;;8.55;3.20;;;5.40;75.20;;;;;;9181443;19;20063;-73
2024/01/29 03:37:53;;;;;;;6.75;3.03;;;5.40;74.80;;;;;;9181151;19;20028;-72
2024/01/29 03:41:02;;;;;;;8.27;3.58;;;5.40;75.00;;;;;;9180758;19;20015;-73
2024/01/29 03:44:09;;;;;;;6.30;2.92;;;5.30;74.80;;;;;;9180337;19;20011;-73
2024/01/29 03:47:15;;;;;;;5.72;2.95;;;5.30;75.10;;;;;;9175281;19;20018;-72
2024/01/29 03:50:22;;;;;;;7.63;3.20;;;5.30;74.90;;;;;;9179848;19;20551;-72
2024/01/29 03:53:28;;;;;;;7.18;2.88;;;5.30;75.40;;;;;;9178054;19;20098;-73
2024/01/29 03:56:38;;;;;;;9.25;3.70;;;5.30;75.10;;;;;;9178257;19;20014;-72
2024/01/29 03:59:43;;;;;;;6.45;2.78;;;5.20;75.00;;;;;;9178229;19;20015;-73
2024/01/29 04:02:52;;;;;;;7.60;2.95;;;5.20;75.00;;;;;;9178982;19;20010;-74
2024/01/29 04:05:57;;;;;;;6.43;3.00;;;5.10;75.10;;;;;;9179675;19;20019;-73
2024/01/29 04:09:05;;;;;;;4.78;2.75;;;5.10;75.00;;;;;;9177741;19;20468;-73
2024/01/29 04:12:13;;;;;;;9.70;3.28;;;5.10;75.00;;;;;;9177951;19;20010;-73
2024/01/29 04:15:21;;;;;;;5.75;3.10;;;5.10;75.00;;;;;;9175227;19;20479;-73
2024/01/29 04:18:26;;;;;;;12.43;3.47;;;5.00;74.90;;;;;;9179502;19;20044;-73
2024/01/29 04:21:34;;;;;;;4.78;2.83;;;5.00;75.10;;;;;;9178363;19;20010;-73
2024/01/29 04:24:40;;;;;;;9.68;3.33;;;5.00;75.00;;;;;;9178424;19;20022;-72
2024/01/29 04:27:51;;;;;;;4.93;2.97;;;5.00;75.20;;;;;;9177465;19;20022;-73
2024/01/29 04:30:56;;;;;;;8.20;3.10;;;4.90;75.10;;;;;;9171845;19;20346;-72
2024/01/29 04:34:09;;;;;;;7.18;3.10;;;4.90;75.20;;;;;;9175586;19;20018;-73
2024/01/29 04:37:15;;;;;;;7.30;3.38;;;4.90;75.40;;;;;;9176859;19;20014;-73
2024/01/29 04:40:23;;;;;;;8.48;3.38;;;4.90;75.00;;;;;;9177373;19;20025;-73
2024/01/29 04:43:31;;;;;;;5.47;2.80;;;4.90;75.30;;;;;;9177044;19;20025;-72
2024/01/29 04:46:39;;;;;;;3.92;2.83;;;4.80;75.00;;;;;;9176693;19;20034;-73
2024/01/29 04:49:44;;;;;;;8.50;3.22;;;4.80;75.30;;;;;;9177291;19;20015;-73
2024/01/29 04:52:52;;;;;;;9.40;4.22;;;4.80;75.10;;;;;;9177610;19;20013;-73
2024/01/29 04:55:57;;;;;;;7.63;3.28;;;4.80;75.20;;;;;;9174703;19;20029;-73
2024/01/29 04:59:08;;;;;;;8.45;3.05;;;4.80;75.50;;;;;;9176847;19;20015;-73
2024/01/29 05:02:13;;;;;;;10.30;3.47;;;4.80;75.30;;;;;;9174384;19;20022;-74
2024/01/29 05:05:21;;;;;;;10.23;3.28;;;4.80;75.40;;;;;;9177739;19;20018;-74
2024/01/29 05:08:26;;;;;;;5.32;3.35;;;4.80;75.40;;;;;;9172847;19;20015;-73
2024/01/29 05:11:34;;;;;;;6.75;3.13;;;4.80;75.50;;;;;;9178279;19;20018;-72
2024/01/29 05:14:42;;;;;;;8.43;3.47;;;4.80;75.60;;;;;;9174822;19;20753;-74
2024/01/29 05:17:49;;;;;;;5.07;3.17;;;4.80;75.40;;;;;;9174633;19;20025;-73
2024/01/29 05:20:55;;;;;;;7.90;3.83;;;4.80;75.60;;;;;;9175339;19;20048;-74
2024/01/29 05:24:03;;;;;;;5.60;3.55;;;4.80;75.70;;;;;;9174443;19;20007;-74
2024/01/29 05:27:08;;;;;;;5.35;3.35;;;4.80;75.50;;;;;;9173649;19;20014;-73
2024/01/29 05:30:19;;;;;;;5.53;3.13;;;4.80;75.60;;;;;;9173781;19;20015;-73
2024/01/29 05:33:25;;;;;;;7.45;3.13;;;4.80;75.70;;;;;;9172990;19;20446;-73
2024/01/29 05:36:33;;;;;;;5.28;3.10;;;4.80;75.60;;;;;;9175177;19;20014;-73
2024/01/29 05:39:39;;;;;;;7.93;3.20;;;4.80;75.80;;;;;;9173994;19;20114;-73
2024/01/29 05:42:52;;;;;;;6.30;3.40;;;4.80;75.70;;;;;;9176950;19;20022;-74
2024/01/29 05:46:00;;;;;;;8.38;3.30;;;4.80;75.60;;;;;;9175804;19;20022;-72
2024/01/29 05:49:08;;;;;;;7.78;3.03;;;4.80;75.60;;;;;;9175629;19;20024;-73
2024/01/29 05:52:16;;;;;;;7.75;3.10;;;4.80;75.60;;;;;;9175640;19;20029;-72
2024/01/29 05:55:23;;;;;;;5.28;3.38;;;4.80;76.10;;;;;;9172939;19;20014;-74
2024/01/29 05:58:32;;;;;;;5.72;3.17;;;4.80;75.80;;;;;;9173620;19;20454;-72
2024/01/29 06:01:42;;;;;;;7.80;3.15;;;4.90;75.90;;;;;;9174596;19;20015;-71
2024/01/29 06:04:47;;;;;;;7.22;3.67;;;4.90;75.70;;;;;;9174726;19;20019;-73
2024/01/29 06:07:55;;;;;;;6.18;3.20;;;4.80;75.90;;;;;;9172807;19;20017;-73
2024/01/29 06:11:01;;;;;;;8.23;3.00;;;4.90;75.70;;;;;;9173743;19;20070;-72
2024/01/29 06:14:09;;;;;;;8.02;3.15;;;4.90;76.10;;;;;;9177599;19;20011;-73
2024/01/29 06:17:17;;;;;;;8.75;3.40;;;4.90;75.80;;;;;;9184678;19;20021;-74
2024/01/29 06:20:25;;;;;;;9.88;3.63;;;4.90;76.10;;;;;;9182651;19;20030;-74
2024/01/29 06:23:30;;;;;;;7.65;3.53;;;4.90;76.10;;;;;;9185407;19;20019;-74
2024/01/29 06:26:41;;;;;;;6.00;3.60;;;4.90;76.90;;;;;;9182862;19;20415;-73
2024/01/29 06:29:46;;;;;;;6.32;3.63;;;5.00;75.90;;;;;;9182055;19;20038;-76
2024/01/29 06:32:57;;;;;;;11.73;3.95;;;4.90;76.00;;;;;;9178474;19;20014;-74
2024/01/29 06:36:02;;;;;;;7.60;3.50;;;4.90;75.80;;;;;;9179769;19;20369;-74
2024/01/29 06:39:10;;;;;;;6.28;3.30;;;5.00;75.90;;;;;;9181909;19;20006;-74
2024/01/29 06:42:15;;;;;;;7.20;3.47;;;5.00;76.10;;;;;;9181927;19;20026;-74
2024/01/29 06:45:23;;;;;;;8.75;3.63;;;5.00;75.80;;;;;;9182843;19;20461;-75
2024/01/29 06:48:36;;;;;;;6.70;3.42;;;5.00;75.80;;;;;;9184246;19;20014;-73
2024/01/29 06:51:44;;;;;;;9.98;3.53;;;5.10;76.10;;;;;;9181645;19;20018;-73
2024/01/29 06:54:50;;;;;;;5.20;3.28;;;5.10;75.90;;;;;;9180616;19;20025;-74
2024/01/29 06:57:58;;;;;;;10.63;3.53;;;5.00;75.80;;;;;;9180083;19;20033;-74
2024/01/29 07:01:04;;;;;;;7.32;3.75;;;4.90;75.80;;;;;;9180691;19;20018;-73
2024/01/29 07:04:14;;;;;;;6.60;3.47;;;5.00;75.90;;;;;;9181535;19;20029;-72
2024/01/29 07:07:19;;;;;;;6.53;3.47;;;4.90;75.80;;;;;;9179028;19;20025;-73
2024/01/29 07:10:27;;;;;;;8.23;3.67;;;4.90;75.70;;;;;;9179086;19;20029;-73
2024/01/29 07:13:33;;;;;;;7.95;3.33;;;4.90;75.90;;;;;;9181718;19;20014;-75
2024/01/29 07:16:41;;;;;;;5.10;3.40;;;4.90;75.80;;;;;;9179823;19;20026;-73
2024/01/29 07:19:52;;;;;;;7.65;3.70;;;4.90;76.10;;;;;;9180831;19;20052;-74
2024/01/29 07:23:00;;;;;;;6.70;3.08;;;4.90;75.90;;;;;;9179431;19;20021;-73
2024/01/29 07:26:06;;;;;;;5.78;3.20;;;4.90;76.00;;;;;;9180473;19;20018;-73
2024/01/29 07:29:13;;;;;;;8.52;3.20;;;4.90;76.10;;;;;;9180241;19;20401;-73
2024/01/29 07:32:19;;;;;;;6.40;3.50;;;4.90;76.00;;;;;;9176011;19;20023;-75
2024/01/29 07:35:29;;;;;;;9.88;3.35;;;4.90;76.00;;;;;;9177487;19;20349;-73
2024/01/29 07:38:35;;;;;;;7.72;3.92;;;4.90;76.20;;;;;;9181337;19;20025;-73
2024/01/29 07:41:43;;;;;;;7.60;3.65;;;5.00;76.20;;;;;;9180772;19;20018;-73
2024/01/29 07:44:48;;;;;;;6.72;3.33;;;5.00;76.30;;;;;;9179818;19;20015;-73
2024/01/29 07:47:56;;;;;;;7.20;3.55;;;5.00;76.60;;;;;;9179361;19;20018;-72
2024/01/29 07:51:04;;;;;;;6.53;3.33;;;5.10;76.50;;;;;;9181472;19;20353;-72
2024/01/29 07:54:12;;;;;;;6.22;3.40;;;5.10;76.60;;;;;;9180335;19;20376;-73
2024/01/29 07:57:18;;;;;;;7.15;3.88;;;5.10;76.50;;;;;;9181981;19;20090;-64
2024/01/29 08:00:25;;;;;;;9.60;3.78;;;5.10;76.50;;;;;;9179073;19;20018;-65
2024/01/29 08:03:31;;;;;;;7.85;3.83;;;5.10;76.30;;;;;;9180125;19;20030;-64
2024/01/29 08:06:41;;;;;;;6.38;3.60;;;5.10;76.40;;;;;;9179078;19;20024;-64
2024/01/29 08:09:47;;;;;;;6.15;3.55;;;5.10;76.50;;;;;;9179694;19;20011;-64
2024/01/29 08:12:55;;;;;;;5.68;3.50;;;5.20;76.50;;;;;;9179434;19;20014;-64
2024/01/29 08:16:01;;;;;;;7.03;3.35;;;5.20;76.50;;;;;;9177406;19;20464;-64
2024/01/29 08:19:09;;;;;;;7.40;4.15;;;5.20;76.60;;;;;;9179710;19;20018;-63
2024/01/29 08:22:18;;;;;;;8.98;3.95;;;5.30;76.50;;;;;;9178575;19;20014;-65
2024/01/29 08:25:26;;;;;;;7.32;3.60;;;5.30;76.50;;;;;;9177162;19;20353;-65
2024/01/29 08:28:31;;;;;;;7.10;3.42;;;5.40;76.80;;;;;;9179312;19;20026;-66
2024/01/29 08:31:39;;;;;;;6.07;3.17;;;5.40;76.80;;;;;;9175703;19;20490;-67
2024/01/29 08:34:47;;;;;;;10.73;3.63;;;5.40;76.90;;;;;;9177974;19;20373;-63
2024/01/29 08:37:57;;;;;;;9.63;4.32;;;5.50;76.80;;;;;;9176973;19;20025;-65
2024/01/29 08:41:02;;;;;;;12.45;4.30;;;5.50;76.80;;;;;;9178654;19;20479;-64
2024/01/29 08:44:10;;;;;;;4.03;3.05;;;5.60;76.80;;;;;;9176325;19;20018;-64
2024/01/29 08:47:16;;;;;;;6.65;3.72;;;5.60;76.80;;;;;;9176435;19;20022;-64
2024/01/29 08:50:23;;;;;;;13.30;3.65;;;5.70;77.00;;;;;;9177516;19;20014;-64
2024/01/29 08:53:31;;;;;;;7.53;3.88;;;5.70;77.00;;;;;;9176401;19;20017;-64
2024/01/29 08:56:39;;;;;;;5.63;3.25;;;5.80;77.10;;;;;;9173826;19;20025;-65
2024/01/29 08:59:45;;;;;;;6.97;3.72;;;5.90;77.00;;;;;;9176838;19;20024;-64
2024/01/29 09:02:53;;;;;;;5.65;3.45;;;6.00;77.30;;;;;;9177656;19;20499;-64
2024/01/29 09:05:58;;;;;;;7.75;3.75;;;6.00;77.00;;;;;;9176095;19;20013;-65
2024/01/29 09:09:15;;;;;;;9.88;3.72;;;6.20;77.20;;;;;;9176444;19;20381;-65
2024/01/29 09:12:20;;;;;;;8.35;3.30;;;6.30;77.20;;;;;;9177022;19;20013;-65
2024/01/29 09:15:28;;;;;;;7.18;3.88;;;6.40;77.20;;;;;;9176243;19;20018;-63
2024/01/29 09:18:34;;;;;;;5.38;3.53;;;6.50;77.30;;;;;;9177002;19;20487;-64
2024/01/29 09:21:42;;;;;;;9.18;4.40;;;6.60;77.20;;;;;;9175078;19;20018;-65
2024/01/29 09:24:50;;;;;;;9.05;4.05;;;6.70;77.20;;;;;;9174600;19;20070;-67
2024/01/29 09:27:58;;;;;;;6.65;3.75;;;6.80;77.20;;;;;;9158069;19;20033;-65
2024/01/29 09:31:03;;;;;;;6.97;3.22;;;6.90;77.00;;;;;;9172546;19;20022;-65
2024/01/29 09:34:11;;;;;;;8.20;4.00;;;7.00;77.10;;;;;;9173384;19;20010;-65
2024/01/29 09:37:18;;;;;;;8.60;4.07;;;7.10;77.10;;;;;;9173087;19;20018;-65
2024/01/29 09:40:29;;;;;;;11.13;3.78;;;7.20;77.10;;;;;;9173787;19;20029;-65
2024/01/29 09:43:37;;;;;;;7.55;3.83;;;7.40;77.50;;;;;;9174288;19;20022;-65
2024/01/29 09:46:46;;;;;;;10.52;4.55;;;7.40;77.40;;;;;;9176525;19;20086;-65
2024/01/29 09:49:52;;;;;;;8.38;4.45;;;7.50;77.10;;;;;;9174381;19;20006;-65
2024/01/29 09:53:02;;;;;;;6.70;4.15;;;7.50;77.20;;;;;;9174141;19;20014;-65
2024/01/29 09:56:11;;;;;;;7.32;3.53;;;7.70;77.20;;;;;;9174118;19;20587;-65
2024/01/29 09:59:19;;;;;;;10.70;3.83;;;7.80;77.00;;;;;;9174967;19;20011;-64
2024/01/29 10:02:25;;;;;;;7.95;4.03;;;7.90;77.00;;;;;;9175513;19;20014;-64
2024/01/29 10:05:33;;;;;;;7.78;4.07;;;8.00;77.00;;;;;;9174858;19;20025;-64
2024/01/29 10:08:40;;;;;;;9.38;4.43;;;8.20;77.30;;;;;;9172648;19;20106;-64
2024/01/29 10:11:52;;;;;;;11.27;4.70;;;8.40;77.30;;;;;;9175138;19;20372;-64
2024/01/29 10:14:57;;;;;;;8.40;4.43;;;8.60;77.40;;;;;;9174825;19;20068;-63
2024/01/29 10:18:07;;;;;;;10.25;5.03;;;8.80;77.60;;;;;;9170400;19;20022;-63
2024/01/29 10:21:13;;;;;;;10.25;4.10;;;9.10;77.50;;;;;;9175296;19;20011;-63
2024/01/29 10:24:20;;;;;;;8.55;5.03;;;9.40;77.50;;;;;;9174741;19;20026;-63
2024/01/29 10:27:28;;;;;;;10.98;4.78;;;9.80;77.50;;;;;;9173010;19;20116;-63
2024/01/29 10:30:36;;;;;;;8.55;4.78;;;10.00;77.20;;;;;;9174087;19;20011;-63
2024/01/29 10:33:42;;;;;;;9.20;4.72;;;10.30;77.20;;;;;;9171002;19;20025;-67
2024/01/29 10:36:51;;;;;;;11.50;4.43;;;10.60;77.10;;;;;;9171456;19;20022;-67
2024/01/29 10:39:58;;;;;;;12.55;4.80;;;10.90;77.20;;;;;;9172842;19;20867;-67
2024/01/29 10:43:17;;;;;;;10.48;4.55;;;11.00;76.80;;;;;;9172406;19;20021;-67
2024/01/29 10:46:25;;;;;;;12.02;5.40;;;11.20;77.10;;;;;;9173112;19;20403;-66
2024/01/29 10:49:34;;;;;;;13.27;5.72;;;11.40;76.20;;;;;;9172333;19;20018;-67
2024/01/29 10:52:40;;;;;;;11.98;5.30;;;11.60;76.20;;;;;;9174400;19;20575;-67
2024/01/29 10:55:51;;;;;;;12.13;5.07;;;11.70;76.00;;;;;;9174642;19;20010;-67
2024/01/29 10:59:01;;;;;;;11.27;5.07;;;11.60;75.60;;;;;;9174677;19;20893;-67
2024/01/29 11:02:15;;;;;;;9.18;4.63;;;11.70;75.50;;;;;;9182131;19;20352;-67
2024/01/29 11:05:21;;;;;;;10.13;4.47;;;11.70;75.30;;;;;;9182641;19;20014;-67
2024/01/29 11:08:32;;;;;;;11.45;5.28;;;11.70;75.20;;;;;;9180569;19;20022;-67
2024/01/29 11:11:39;;;;;;;7.82;5.13;;;11.80;75.80;;;;;;9181086;19;20022;-67
2024/01/29 11:14:59;;;;;;;13.30;4.55;;;11.70;75.20;;;;;;9179130;19;20014;-67
2024/01/29 11:18:05;;;;;;;13.07;5.40;;;11.80;74.80;;;;;;9178897;19;20115;-67
2024/01/29 11:21:14;;;;;;;12.38;5.22;;;11.80;74.90;;;;;;9180557;19;20021;-67
2024/01/29 11:24:25;;;;;;;14.65;5.55;;;11.80;74.80;;;;;;9180916;19;20058;-67
2024/01/29 11:27:34;;;;;;;9.43;4.97;;;11.80;74.80;;;;;;9179856;19;20029;-64
2024/01/29 11:30:44;;;;;;;8.82;5.25;;;11.80;74.70;;;;;;9180234;19;20015;-65
2024/01/29 11:33:51;;;;;;;7.55;4.90;;;11.80;74.60;;;;;;9180356;19;20021;-65
2024/01/29 11:36:57;;;;;;;8.60;4.82;;;11.80;74.80;;;;;;9179402;19;20083;-65
2024/01/29 11:40:05;;;;;;;13.13;5.07;;;11.90;75.70;;;;;;9179175;19;20026;-65
2024/01/29 11:43:15;;;;;;;7.80;4.93;;;11.80;74.70;;;;;;9181606;19;20027;-64
2024/01/29 11:46:30;;;;;;;11.90;5.80;;;12.00;75.10;;;;;;9177771;19;20015;-66
2024/01/29 11:49:35;;;;;;;7.32;4.45;;;11.90;74.50;;;;;;9179042;19;20051;-64
2024/01/29 11:52:43;;;;;;;11.73;5.38;;;11.90;74.70;;;;;;9179417;19;20021;-66
2024/01/29 11:55:50;;;;;;;8.75;5.03;;;12.00;74.50;;;;;;9180268;19;20026;-65
2024/01/29 11:59:03;;;;;;;11.70;4.80;;;12.00;74.60;;;;;;9175931;19;20021;-66
2024/01/29 12:02:14;;;;;;;9.87;5.30;;;11.90;74.20;;;;;;9178269;19;20021;-66
2024/01/29 12:05:22;;;;;;;11.07;5.10;;;11.90;74.20;;;;;;9177891;19;20468;-65
2024/01/29 12:08:27;;;;;;;8.20;4.82;;;11.80;74.00;;;;;;9177620;19;20035;-64
2024/01/29 12:11:36;;;;;;;9.07;5.22;;;11.70;74.10;;;;;;9178081;19;20018;-65
2024/01/29 12:14:42;;;;;;;7.80;5.30;;;11.70;74.20;;;;;;9180294;19;20036;-64
2024/01/29 12:17:53;;;;;;;15.73;6.20;;;11.60;74.30;;;;;;9178259;19;20022;-66
2024/01/29 12:21:00;;;;;;;10.05;5.22;;;11.60;74.10;;;;;;9180343;19;20396;-63
2024/01/29 12:24:09;;;;;;;9.50;5.35;;;11.50;74.10;;;;;;9175979;19;20010;-68
2024/01/29 12:27:15;;;;;;;12.48;5.82;;;11.50;74.10;;;;;;9177336;19;20022;-69
2024/01/29 12:30:23;;;;;;;10.25;5.43;;;11.50;74.30;;;;;;9173715;19;20011;-69
2024/01/29 12:33:31;;;;;;;11.27;5.82;;;11.40;74.20;;;;;;9171193;19;20011;-69
2024/01/29 12:36:41;;;;;;;13.80;5.80;;;11.40;74.20;;;;;;9177683;19;20022;-68
2024/01/29 12:39:52;;;;;;;13.15;5.95;;;11.30;74.20;;;;;;9178352;19;20003;-68
2024/01/29 12:43:02;;;;;;;11.48;6.57;;;11.30;74.20;;;;;;9175857;19;20014;-68
2024/01/29 12:46:11;;;;;;;13.75;6.63;;;11.30;74.50;;;;;;9178996;19;20624;-67
2024/01/29 12:49:22;;;;;;;9.60;5.57;;;11.20;74.60;;;;;;9178989;19;20021;-68
2024/01/29 12:52:28;;;;;;;9.98;5.95;;;11.20;74.40;;;;;;9178356;19;20081;-68
2024/01/29 12:55:36;;;;;;;13.43;5.75;;;11.20;74.40;;;;;;9178671;19;20022;-67
2024/01/29 12:58:41;;;;;;;16.13;7.05;;;11.20;74.40;;;;;;9175562;19;20023;-70
2024/01/29 13:01:49;;;;;;;11.02;5.70;;;11.30;74.60;;;;;;9178567;19;20006;-70
2024/01/29 13:04:58;;;;;;;12.05;5.43;;;11.30;74.70;;;;;;9177448;19;20014;-70
2024/01/29 13:08:06;;;;;;;11.13;5.22;;;11.10;74.50;;;;;;9177035;19;20018;-70
2024/01/29 13:11:12;;;;;;;12.20;6.22;;;11.20;74.80;;;;;;9177965;19;20018;-67
2024/01/29 13:14:19;;;;;;;8.70;5.80;;;11.20;74.60;;;;;;9178495;19;20506;-69
2024/01/29 13:17:28;;;;;;;12.20;6.30;;;11.20;74.60;;;;;;9178403;19;20042;-67
2024/01/29 13:20:39;;;;;;;10.00;6.18;;;11.20;74.60;;;;;;9177837;19;20448;-66
2024/01/29 13:23:47;;;;;;;10.88;6.60;;;11.20;74.70;;;;;;9175392;19;20014;-68
2024/01/29 13:26:55;;;;;;;11.73;6.70;;;11.10;74.70;;;;;;9171121;19;20022;-69
2024/01/29 13:30:01;;;;;;;13.43;6.03;;;11.20;74.70;;;;;;9178077;19;20006;-66
2024/01/29 13:33:09;;;;;;;15.15;6.57;;;11.10;74.70;;;;;;9172130;19;20015;-67
2024/01/29 13:36:18;;;;;;;14.07;6.70;;;11.20;74.80;;;;;;9176544;19;20109;-72
2024/01/29 13:39:27;;;;;;;10.05;5.75;;;11.10;74.80;;;;;;9174796;19;20021;-71
2024/01/29 13:42:34;;;;;;;10.43;5.72;;;11.10;74.80;;;;;;9175591;19;20014;-68
2024/01/29 13:45:43;;;;;;;14.63;6.55;;;11.20;74.90;;;;;;9176717;19;20015;-68
2024/01/29 13:48:49;;;;;;;10.90;6.70;;;11.20;74.90;;;;;;9177346;19;20343;-69
2024/01/29 13:51:59;;;;;;;14.57;6.40;;;11.10;74.90;;;;;;9174261;19;20007;-70
2024/01/29 13:55:05;;;;;;;10.18;6.53;;;11.10;75.00;;;;;;9176078;19;20028;-65
2024/01/29 13:58:12;;;;;;;12.88;6.72;;;11.10;75.00;;;;;;9174574;19;20373;-66
2024/01/29 14:01:19;;;;;;;11.52;6.05;;;11.10;75.10;;;;;;9175125;19;20014;-67
2024/01/29 14:04:27;;;;;;;17.88;6.82;;;11.10;75.00;;;;;;9172385;19;20049;-67
2024/01/29 14:07:35;;;;;;;19.13;9.98;;;11.10;75.00;;;;;;9173164;19;20015;-69
2024/01/29 14:10:43;;;;;;;13.65;6.90;;;11.10;74.90;;;;;;9174233;19;20014;-67
2024/01/29 14:13:49;;;;;;;14.05;8.63;;;11.20;75.10;;;;;;9174391;19;20017;-68
2024/01/29 14:16:56;;;;;;;15.40;7.05;;;11.20;75.10;;;;;;9174733;19;20484;-67
2024/01/29 14:20:02;;;;;;;22.33;7.85;;;11.20;75.10;;;;;;9173652;19;20014;-68
2024/01/29 14:23:13;;;;;;;13.65;6.60;;;11.20;75.10;;;;;;9175234;19;20014;-68
2024/01/29 14:26:19;;;;;;;44.05;9.65;;;11.20;75.20;;;;;;9174520;19;20379;-65
2024/01/29 14:29:26;;;;;;;17.23;7.78;;;11.10;75.00;;;;;;9174875;19;20480;-69
2024/01/29 14:32:32;;;;;;;14.50;7.22;;;11.20;75.10;;;;;;9170391;19;20022;-67
2024/01/29 14:35:39;;;;;;;13.32;8.05;;;11.20;75.20;;;;;;9180207;19;20006;-68
2024/01/29 14:38:48;;;;;;;14.65;6.88;;;11.10;75.20;;;;;;9183104;19;20908;-67
2024/01/29 14:41:55;;;;;;;11.55;7.07;;;11.20;75.10;;;;;;9183699;19;20401;-68
2024/01/29 14:45:01;;;;;;;11.23;6.60;;;11.20;75.20;;;;;;9184410;19;20017;-68
2024/01/29 14:48:10;;;;;;;11.82;6.35;;;11.10;75.20;;;;;;9180441;19;20018;-68
2024/01/29 14:51:15;;;;;;;11.13;6.88;;;11.10;75.20;;;;;;9179568;19;20040;-65
2024/01/29 14:54:26;;;;;;;13.93;7.53;;;11.10;75.10;;;;;;9179876;19;20022;-68
2024/01/29 14:57:31;;;;;;;13.88;6.85;;;11.10;75.10;;;;;;9177816;19;20019;-67
2024/01/29 15:00:39;;;;;;;13.55;7.03;;;11.10;75.30;;;;;;9173557;19;20014;-66
2024/01/29 15:03:45;;;;;;;13.93;7.05;;;11.20;75.50;;;;;;9180202;19;20483;-68
2024/01/29 15:06:53;;;;;;;15.27;7.43;;;11.20;75.20;;;;;;9177585;19;20037;-68
2024/01/29 15:10:01;;;;;;;14.63;7.32;;;11.10;75.30;;;;;;9180151;19;20799;-68
2024/01/29 15:13:09;;;;;;;11.43;6.85;;;11.10;75.40;;;;;;9181326;19;20014;-66
2024/01/29 15:16:16;;;;;;;17.35;7.60;;;11.10;75.40;;;;;;9181430;19;20065;-65
2024/01/29 15:19:24;;;;;;;13.23;7.32;;;11.00;75.10;;;;;;9175919;19;20018;-69
2024/01/29 15:22:30;;;;;;;11.82;7.38;;;11.00;75.10;;;;;;9179815;19;20941;-67
2024/01/29 15:25:42;;;;;;;12.73;7.43;;;11.00;75.20;;;;;;9178028;19;20570;-67
2024/01/29 15:28:48;;;;;;;15.75;7.43;;;10.90;75.20;;;;;;9180961;19;20114;-68
2024/01/29 15:31:55;;;;;;;12.07;7.70;;;10.90;75.10;;;;;;9177827;19;20020;-67
2024/01/29 15:35:01;;;;;;;10.88;6.00;;;10.90;75.20;;;;;;9181560;19;20010;-66
2024/01/29 15:38:10;;;;;;;11.60;7.10;;;10.90;75.30;;;;;;9181546;19;20615;-66
2024/01/29 15:41:21;;;;;;;16.20;7.38;;;10.90;75.20;;;;;;9178039;19;20040;-66
2024/01/29 15:44:29;;;;;;;21.02;7.75;;;10.80;75.20;;;;;;9181549;19;20022;-66
2024/01/29 15:47:35;;;;;;;13.82;6.68;;;10.70;75.10;;;;;;9179730;19;20473;-65
2024/01/29 15:50:43;;;;;;;15.52;7.25;;;10.70;75.20;;;;;;9180830;19;20014;-66
2024/01/29 15:53:49;;;;;;;15.15;7.20;;;10.70;75.20;;;;;;9180705;19;20014;-65
2024/01/29 15:57:04;;;;;;;11.32;6.28;;;10.70;75.40;;;;;;9178256;19;20006;-65
2024/01/29 16:00:13;;;;;;;;;;;10.60;75.30;;;;;;9179874;19;20041;-65
2024/01/29 16:03:20;;;;;;;14.57;6.00;;;10.50;75.20;;;;;;9180252;19;20019;-66
2024/01/29 16:06:26;;;;;;;12.60;6.90;;;10.50;75.40;;;;;;9179638;19;20018;-65
2024/01/29 16:09:33;;;;;;;11.77;6.63;;;10.50;75.30;;;;;;9179111;19;20030;-66
2024/01/29 16:12:44;;;;;;;13.27;6.78;;;10.50;75.40;;;;;;9180386;19;20019;-65
2024/01/29 16:15:52;;;;;;;12.32;6.50;;;10.40;75.30;;;;;;9180428;19;20022;-65
2024/01/29 16:18:57;;;;;;;11.88;6.57;;;10.40;75.50;;;;;;9178808;19;20018;-66
2024/01/29 16:22:06;;;;;;;11.00;6.93;;;10.30;75.60;;;;;;9177652;19;20014;-65